createdAt,value
2018-06-30T00:00:18.644Z,64.00
2018-06-30T00:02:49.490Z,81.00
2018-06-30T00:05:21.779Z,67.40
2018-06-30T00:07:53.491Z,81.57
2018-06-30T00:10:29.265Z,79.13
2018-06-30T00:13:02.372Z,74.37
2018-06-30T00:15:34.533Z,69.27
2018-06-30T00:18:06.409Z,71.97
2018-06-30T00:20:38.774Z,56.53
2018-06-30T00:23:10.652Z,69.00
2018-06-30T00:25:42.683Z,79.60
2018-06-30T00:28:14.455Z,73.90
2018-06-30T00:30:46.130Z,62.10
2018-06-30T00:33:18.230Z,69.07
2018-06-30T00:35:50.361Z,62.17
2018-06-30T00:38:22.029Z,63.37
2018-06-30T00:40:53.198Z,63.10
2018-06-30T00:43:25.827Z,58.80
2018-06-30T00:45:57.976Z,63.00
2018-06-30T00:48:29.678Z,54.70
2018-06-30T00:51:01.551Z,78.10
2018-06-30T00:53:33.572Z,69.70
2018-06-30T00:56:06.161Z,62.80
2018-06-30T00:58:38.772Z,91.97
2018-06-30T01:01:10.542Z,85.37
2018-06-30T01:03:42.332Z,71.10
2018-06-30T01:06:13.945Z,70.07
2018-06-30T01:08:45.808Z,65.90
2018-06-30T01:11:17.721Z,71.03
2018-06-30T01:13:49.408Z,73.13
2018-06-30T01:16:21.511Z,67.20
2018-06-30T01:18:53.340Z,74.67
2018-06-30T01:21:25.631Z,62.00
2018-06-30T01:23:57.592Z,74.60
2018-06-30T01:26:28.955Z,71.37
2018-06-30T01:29:01.276Z,63.93
2018-06-30T01:31:33.529Z,77.33
2018-06-30T01:34:05.413Z,80.53
2018-06-30T01:36:37.329Z,65.27
2018-06-30T01:39:11.860Z,71.63
2018-06-30T01:41:43.670Z,70.73
2018-06-30T01:44:14.754Z,67.83
2018-06-30T01:46:47.027Z,94.50
2018-06-30T01:49:19.165Z,72.43
2018-06-30T01:51:51.411Z,75.70
2018-06-30T01:54:23.058Z,69.13
2018-06-30T01:56:55.097Z,62.93
2018-06-30T01:59:28.179Z,52.33
2018-06-30T02:02:00.749Z,73.47
2018-06-30T02:04:33.586Z,66.30
2018-06-30T02:07:05.687Z,72.70
2018-06-30T02:09:37.434Z,72.40
2018-06-30T02:12:09.483Z,69.07
2018-06-30T02:14:41.219Z,60.13
2018-06-30T02:17:14.638Z,73.37
2018-06-30T02:19:46.471Z,70.70
2018-06-30T02:22:18.591Z,68.00
2018-06-30T02:24:50.887Z,73.63
2018-06-30T02:27:23.230Z,81.83
2018-06-30T02:29:55.749Z,72.27
2018-06-30T02:32:26.931Z,81.30
2018-06-30T02:34:57.771Z,68.63
2018-06-30T02:37:29.639Z,74.43
2018-06-30T02:40:01.318Z,61.00
2018-06-30T02:42:33.285Z,64.87
2018-06-30T02:45:05.218Z,70.27
2018-06-30T02:47:37.795Z,70.97
2018-06-30T02:50:10.055Z,64.77
2018-06-30T02:52:42.105Z,85.67
2018-06-30T02:55:13.801Z,78.30
2018-06-30T02:57:45.242Z,74.30
2018-06-30T03:00:19.256Z,69.23
2018-06-30T03:02:51.198Z,57.33
2018-06-30T03:05:23.119Z,73.73
2018-06-30T03:07:55.191Z,80.73
2018-06-30T03:10:26.923Z,82.73
2018-06-30T03:12:58.879Z,85.10
2018-06-30T03:15:31.426Z,69.77
2018-06-30T03:18:03.350Z,74.20
2018-06-30T03:20:34.221Z,65.10
2018-06-30T03:23:05.690Z,86.10
2018-06-30T03:25:37.611Z,85.33
2018-06-30T03:28:09.469Z,84.43
2018-06-30T03:30:41.618Z,86.60
2018-06-30T03:33:12.884Z,90.90
2018-06-30T03:35:44.714Z,103.83
2018-06-30T03:38:15.928Z,119.60
2018-06-30T03:40:48.126Z,108.90
2018-06-30T03:43:20.427Z,95.63
2018-06-30T03:45:52.346Z,100.53
2018-06-30T03:48:23.687Z,100.03
2018-06-30T03:50:54.605Z,116.60
2018-06-30T03:53:26.547Z,108.67
2018-06-30T03:55:58.435Z,104.57
2018-06-30T03:58:30.489Z,106.47
2018-06-30T04:01:03.991Z,105.90
2018-06-30T04:03:36.553Z,94.37
2018-06-30T04:06:09.013Z,100.37
2018-06-30T04:08:40.966Z,99.17
2018-06-30T04:11:13.198Z,113.30
2018-06-30T04:13:45.291Z,115.47
2018-06-30T04:16:16.944Z,115.17
2018-06-30T04:18:49.206Z,91.30
2018-06-30T04:21:21.011Z,114.87
2018-06-30T04:23:53.680Z,126.23
2018-06-30T04:26:25.761Z,143.43
2018-06-30T04:28:57.859Z,120.00
2018-06-30T04:31:29.728Z,106.23
2018-06-30T04:34:01.738Z,117.53
2018-06-30T04:36:33.777Z,118.83
2018-06-30T04:39:07.831Z,120.90
2018-06-30T04:41:39.739Z,95.97
2018-06-30T04:44:11.967Z,104.67
2018-06-30T04:46:43.871Z,102.03
2018-06-30T04:49:16.238Z,123.17
2018-06-30T04:51:48.011Z,77.27
2018-06-30T04:54:20.284Z,113.87
2018-06-30T04:56:52.236Z,93.13
2018-06-30T04:59:24.342Z,115.30
2018-06-30T05:01:57.206Z,101.60
2018-06-30T05:04:29.236Z,96.33
2018-06-30T05:07:00.800Z,94.00
2018-06-30T05:09:32.934Z,118.47
2018-06-30T05:12:04.883Z,124.10
2018-06-30T05:14:37.146Z,97.75
2018-06-30T05:17:09.116Z,108.22
2018-06-30T05:19:40.894Z,102.87
2018-06-30T05:22:12.607Z,93.05
2018-06-30T05:24:45.331Z,107.05
2018-06-30T05:27:17.576Z,104.15
2018-06-30T05:29:48.720Z,118.28
2018-06-30T05:32:19.758Z,105.25
2018-06-30T05:34:52.422Z,103.62
2018-06-30T05:37:25.409Z,106.40
2018-06-30T05:39:57.453Z,122.17
2018-06-30T05:42:28.670Z,106.67
2018-06-30T05:45:00.798Z,92.08
2018-06-30T05:47:32.585Z,107.07
2018-06-30T05:50:04.349Z,111.55
2018-06-30T05:52:35.477Z,77.92
2018-06-30T05:55:07.774Z,80.65
2018-06-30T05:57:39.806Z,81.25
2018-06-30T06:00:12.143Z,87.12
2018-06-30T06:02:44.510Z,99.58
2018-06-30T06:05:16.579Z,86.22
2018-06-30T06:07:48.371Z,87.40
2018-06-30T06:10:19.605Z,91.00
2018-06-30T06:12:51.293Z,94.17
2018-06-30T06:15:23.328Z,108.27
2018-06-30T06:17:55.362Z,96.47
2018-06-30T06:20:27.740Z,93.90
2018-06-30T06:22:59.524Z,84.72
2018-06-30T06:25:31.637Z,76.00
2018-06-30T06:28:03.514Z,80.00
2018-06-30T06:30:35.541Z,74.20
2018-06-30T06:33:07.354Z,81.42
2018-06-30T06:35:40.362Z,72.72
2018-06-30T06:38:12.118Z,88.78
2018-06-30T06:40:44.095Z,68.15
2018-06-30T06:43:15.912Z,70.35
2018-06-30T06:45:47.653Z,76.28
2018-06-30T06:48:19.304Z,68.50
2018-06-30T06:50:51.237Z,70.47
2018-06-30T06:53:23.094Z,64.37
2018-06-30T06:55:55.186Z,83.03
2018-06-30T06:58:27.044Z,65.17
2018-06-30T07:00:58.811Z,77.35
2018-06-30T07:03:31.483Z,62.27
2018-06-30T07:06:03.807Z,71.90
2018-06-30T07:08:34.816Z,62.75
2018-06-30T07:11:06.918Z,77.17
2018-06-30T07:13:38.586Z,86.37
2018-06-30T07:16:11.450Z,67.20
2018-06-30T07:18:43.149Z,91.15
2018-06-30T07:21:15.300Z,85.75
2018-06-30T07:23:46.929Z,63.17
2018-06-30T07:26:17.974Z,81.17
2018-06-30T07:28:48.750Z,63.60
2018-06-30T07:31:20.741Z,80.47
2018-06-30T07:33:52.962Z,71.02
2018-06-30T07:36:25.051Z,65.72
2018-06-30T07:38:56.998Z,62.30
2018-06-30T07:41:28.871Z,65.65
2018-06-30T07:44:00.503Z,65.15
2018-06-30T07:46:32.516Z,60.43
2018-06-30T07:49:04.290Z,72.87
2018-06-30T07:51:36.425Z,90.75
2018-06-30T07:54:08.397Z,62.35
2018-06-30T07:56:40.699Z,65.08
2018-06-30T07:59:12.385Z,76.37
2018-06-30T08:01:44.268Z,60.43
2018-06-30T08:04:16.910Z,71.10
2018-06-30T08:06:48.978Z,61.77
2018-06-30T08:09:21.526Z,64.30
2018-06-30T08:11:53.608Z,77.82
2018-06-30T08:14:25.376Z,60.12
2018-06-30T08:16:57.409Z,61.15
2018-06-30T08:19:29.364Z,60.45
2018-06-30T08:22:01.654Z,70.20
2018-06-30T08:24:33.536Z,84.52
2018-06-30T08:27:05.649Z,66.50
2018-06-30T08:29:37.758Z,78.05
2018-06-30T08:32:09.845Z,52.62
2018-06-30T08:34:41.430Z,61.85
2018-06-30T08:37:14.079Z,71.53
2018-06-30T08:39:46.175Z,63.95
2018-06-30T08:42:18.330Z,62.10
2018-06-30T08:44:50.186Z,86.47
2018-06-30T08:47:21.959Z,54.38
2018-06-30T08:49:53.558Z,64.42
2018-06-30T08:52:25.926Z,54.55
2018-06-30T08:54:57.639Z,69.82
2018-06-30T08:57:29.917Z,81.15
2018-06-30T09:00:00.726Z,89.90
2018-06-30T09:02:32.751Z,95.80
2018-06-30T09:05:05.102Z,79.65
2018-06-30T09:07:37.001Z,95.77
2018-06-30T09:10:08.730Z,79.90
2018-06-30T09:12:40.657Z,84.90
2018-06-30T09:15:12.390Z,90.15
2018-06-30T09:17:44.559Z,79.25
2018-06-30T09:20:16.600Z,92.75
2018-06-30T09:22:48.654Z,85.25
2018-06-30T09:25:20.602Z,96.10
2018-06-30T09:27:52.466Z,84.97
2018-06-30T09:30:24.170Z,112.35
2018-06-30T09:32:56.037Z,91.65
2018-06-30T09:35:26.862Z,96.42
2018-06-30T09:37:58.218Z,102.22
2018-06-30T09:40:30.127Z,91.90
2018-06-30T09:43:02.542Z,101.10
2018-06-30T09:45:34.353Z,103.20
2018-06-30T09:48:06.391Z,83.20
2018-06-30T09:50:37.198Z,86.63
2018-06-30T09:53:09.140Z,90.95
2018-06-30T09:55:40.863Z,90.00
2018-06-30T09:58:12.686Z,99.30
2018-06-30T10:00:49.092Z,95.73
2018-06-30T10:03:21.572Z,97.45
2018-06-30T10:05:54.388Z,91.97
2018-06-30T10:08:26.613Z,103.47
2018-06-30T10:10:57.464Z,108.35
2018-06-30T10:13:29.634Z,97.47
2018-06-30T10:16:01.524Z,96.95
2018-06-30T10:18:33.378Z,99.30
2018-06-30T10:21:05.294Z,108.23
2018-06-30T10:23:37.371Z,91.35
2018-06-30T10:26:09.157Z,102.90
2018-06-30T10:28:41.257Z,90.63
2018-06-30T10:31:13.115Z,116.00
2018-06-30T10:33:44.936Z,86.45
2018-06-30T10:36:16.541Z,107.80
2018-06-30T10:38:48.934Z,93.60
2018-06-30T10:41:20.738Z,89.73
2018-06-30T10:43:52.846Z,98.10
2018-06-30T10:46:24.834Z,106.83
2018-06-30T10:48:56.515Z,91.33
2018-06-30T10:51:28.205Z,88.03
2018-06-30T10:54:01.396Z,116.50
2018-06-30T10:56:33.298Z,90.50
2018-06-30T10:59:05.402Z,102.87
2018-06-30T11:01:37.256Z,90.43
2018-06-30T11:04:09.232Z,98.67
2018-06-30T11:06:42.710Z,91.03
2018-06-30T11:09:14.517Z,107.00
2018-06-30T11:11:46.183Z,112.97
2018-06-30T11:14:20.474Z,87.93
2018-06-30T11:16:53.555Z,102.17
2018-06-30T11:19:25.659Z,92.87
2018-06-30T11:21:57.251Z,110.50
2018-06-30T11:24:42.578Z,95.20
2018-06-30T11:27:23.714Z,117.30
2018-06-30T11:29:55.662Z,102.00
2018-06-30T11:32:41.199Z,98.63
2018-06-30T11:35:12.970Z,90.00
2018-06-30T11:37:44.665Z,107.77
2018-06-30T11:40:16.353Z,98.10
2018-06-30T11:42:48.113Z,99.30
2018-06-30T11:45:20.084Z,98.67
2018-06-30T11:47:51.846Z,99.33
2018-06-30T11:50:23.981Z,101.20
2018-06-30T11:52:55.731Z,91.53
2018-06-30T11:55:28.240Z,99.70
2018-06-30T11:58:00.901Z,94.03
2018-06-30T12:00:32.926Z,98.83
2018-06-30T12:03:04.762Z,89.57
2018-06-30T12:05:37.426Z,86.03
2018-06-30T12:08:10.491Z,90.57
2018-06-30T12:10:42.395Z,111.23
2018-06-30T12:13:14.037Z,119.00
2018-06-30T12:15:46.195Z,89.23
2018-06-30T12:18:17.917Z,107.77
2018-06-30T12:20:50.411Z,93.93
2018-06-30T12:23:22.935Z,96.67
2018-06-30T12:25:55.154Z,97.40
2018-06-30T12:28:26.811Z,86.63
2018-06-30T12:30:58.709Z,90.17
2018-06-30T12:33:30.439Z,109.07
2018-06-30T12:36:03.195Z,89.17
2018-06-30T12:38:34.986Z,106.87
2018-06-30T12:41:06.837Z,96.87
2018-06-30T12:43:39.336Z,103.77
2018-06-30T12:46:11.531Z,100.03
2018-06-30T12:48:43.198Z,84.87
2018-06-30T12:51:15.262Z,112.97
2018-06-30T12:53:46.794Z,95.47
2018-06-30T12:56:18.645Z,93.27
2018-06-30T12:58:50.490Z,91.73
2018-06-30T13:01:22.585Z,105.03
2018-06-30T13:03:54.872Z,103.93
2018-06-30T13:06:27.024Z,109.77
2018-06-30T13:08:59.146Z,92.37
2018-06-30T13:11:31.151Z,86.57
2018-06-30T13:14:03.094Z,100.50
2018-06-30T13:16:35.446Z,106.23
2018-06-30T13:19:08.106Z,94.57
2018-06-30T13:21:40.079Z,114.37
2018-06-30T13:24:11.855Z,85.50
2018-06-30T13:26:44.933Z,89.37
2018-06-30T13:29:16.717Z,88.63
2018-06-30T13:31:48.423Z,96.77
2018-06-30T13:34:20.312Z,93.03
2018-06-30T13:36:52.415Z,104.43
2018-06-30T13:39:24.026Z,89.27
2018-06-30T13:41:55.922Z,81.30
2018-06-30T13:44:27.761Z,89.23
2018-06-30T13:46:59.884Z,101.43
2018-06-30T13:49:31.950Z,169.13
2018-06-30T13:52:03.897Z,152.60
2018-06-30T13:54:34.867Z,177.97
2018-06-30T13:57:06.689Z,131.03
2018-06-30T13:59:38.458Z,123.87
2018-06-30T14:02:10.474Z,109.07
2018-06-30T14:04:42.302Z,110.30
2018-06-30T14:07:15.089Z,119.80
2018-06-30T14:09:48.903Z,118.57
2018-06-30T14:12:20.038Z,98.80
2018-06-30T14:14:51.882Z,112.30
2018-06-30T14:17:22.936Z,112.00
2018-06-30T14:19:54.726Z,89.27
2018-06-30T14:22:25.719Z,107.07
2018-06-30T14:24:57.407Z,100.90
2018-06-30T14:27:29.426Z,118.43
2018-06-30T14:30:01.299Z,103.63
2018-06-30T14:32:33.354Z,119.33
2018-06-30T14:35:05.302Z,112.93
2018-06-30T14:37:37.332Z,86.33
2018-06-30T14:40:09.817Z,109.67
2018-06-30T14:42:41.926Z,100.03
2018-06-30T14:45:13.790Z,95.37
2018-06-30T14:47:44.965Z,91.97
2018-06-30T14:50:16.659Z,90.87
2018-06-30T14:52:49.411Z,104.00
2018-06-30T14:55:21.110Z,92.97
2018-06-30T14:57:53.186Z,92.77
2018-06-30T15:00:25.133Z,83.03
2018-06-30T15:02:57.174Z,89.10
2018-06-30T15:05:29.147Z,110.97
2018-06-30T15:08:01.019Z,97.20
2018-06-30T15:10:34.293Z,101.80
2018-06-30T15:13:06.692Z,115.40
2018-06-30T15:15:38.302Z,101.90
2018-06-30T15:18:10.394Z,74.83
2018-06-30T15:20:42.558Z,89.23
2018-06-30T15:23:13.794Z,71.10
2018-06-30T15:25:44.502Z,83.23
2018-06-30T15:28:16.809Z,91.67
2018-06-30T15:30:47.614Z,95.33
2018-06-30T15:33:20.432Z,96.53
2018-06-30T15:35:51.224Z,99.50
2018-06-30T15:38:22.197Z,112.10
2018-06-30T15:40:53.015Z,85.07
2018-06-30T15:43:24.730Z,90.40
2018-06-30T15:45:56.564Z,103.93
2018-06-30T15:48:27.589Z,103.93
2018-06-30T15:50:59.241Z,109.47
2018-06-30T15:53:31.323Z,109.03
2018-06-30T15:56:02.898Z,85.27
2018-06-30T15:58:34.777Z,88.57
2018-06-30T16:01:06.688Z,83.03
2018-06-30T16:03:38.614Z,107.23
2018-06-30T16:06:10.395Z,86.70
2018-06-30T16:08:42.450Z,87.27
2018-06-30T16:11:15.461Z,106.00
2018-06-30T16:13:47.661Z,99.57
2018-06-30T16:16:19.602Z,97.20
2018-06-30T16:18:51.710Z,80.50
2018-06-30T16:21:23.302Z,85.90
2018-06-30T16:23:55.359Z,84.33
2018-06-30T16:26:27.269Z,92.87
2018-06-30T16:28:59.243Z,93.33
2018-06-30T16:31:31.171Z,96.93
2018-06-30T16:34:03.393Z,93.80
2018-06-30T16:36:35.106Z,99.37
2018-06-30T16:39:09.573Z,102.57
2018-06-30T16:41:40.554Z,86.17
2018-06-30T16:44:12.463Z,92.00
2018-06-30T16:46:44.306Z,86.47
2018-06-30T16:49:16.299Z,97.40
2018-06-30T16:51:48.303Z,96.87
2018-06-30T16:54:20.670Z,90.37
2018-06-30T16:56:52.455Z,95.03
2018-06-30T16:59:24.415Z,85.20
2018-06-30T17:01:56.031Z,86.33
2018-06-30T17:04:27.935Z,92.23
2018-06-30T17:06:59.785Z,95.77
2018-06-30T17:09:31.746Z,74.47
2018-06-30T17:12:04.013Z,87.47
2018-06-30T17:14:36.309Z,76.83
2018-06-30T17:17:07.847Z,89.93
2018-06-30T17:19:39.954Z,82.60
2018-06-30T17:22:11.567Z,96.77
2018-06-30T17:24:43.458Z,115.50
2018-06-30T17:27:15.207Z,98.33
2018-06-30T17:29:47.051Z,91.27
2018-06-30T17:32:18.730Z,80.53
2018-06-30T17:34:50.562Z,92.43
2018-06-30T17:37:22.211Z,80.07
2018-06-30T17:39:53.963Z,99.77
2018-06-30T17:42:25.730Z,78.63
2018-06-30T17:44:57.594Z,95.80
2018-06-30T17:47:29.346Z,102.47
2018-06-30T17:50:01.505Z,81.30
2018-06-30T17:52:33.189Z,86.90
2018-06-30T17:55:05.230Z,79.97
2018-06-30T17:57:37.106Z,86.37
2018-06-30T18:00:10.914Z,96.70
2018-06-30T18:02:42.653Z,95.80
2018-06-30T18:05:14.691Z,91.57
2018-06-30T18:07:46.512Z,102.70
2018-06-30T18:10:18.754Z,95.53
2018-06-30T18:12:51.513Z,119.43
2018-06-30T18:18:00.966Z,130.90
2018-06-30T18:20:33.131Z,94.30
2018-06-30T18:23:05.078Z,106.87
2018-06-30T18:25:36.351Z,112.87
2018-06-30T18:28:08.458Z,106.70
2018-06-30T18:30:40.419Z,91.57
2018-06-30T18:33:12.223Z,101.47
2018-06-30T18:35:44.374Z,103.77
2018-06-30T18:38:16.101Z,108.27
2018-06-30T18:40:47.966Z,84.33
2018-06-30T18:43:19.915Z,93.27
2018-06-30T18:45:51.697Z,100.60
2018-06-30T18:48:23.525Z,98.77
2018-06-30T18:50:55.288Z,86.90
2018-06-30T18:53:27.022Z,99.30
2018-06-30T18:55:59.213Z,91.43
2018-06-30T18:58:30.731Z,91.77
2018-06-30T19:01:02.445Z,100.57
2018-06-30T19:03:33.974Z,96.17
2018-06-30T19:06:05.962Z,91.57
2018-06-30T19:08:37.972Z,91.03
2018-06-30T19:11:10.198Z,91.03
2018-06-30T19:13:43.463Z,91.93
2018-06-30T19:16:15.338Z,96.43
2018-06-30T19:18:47.223Z,98.37
2018-06-30T19:21:18.997Z,105.53
2018-06-30T19:23:49.742Z,86.53
2018-06-30T19:26:23.639Z,104.27
2018-06-30T19:28:55.678Z,86.60
2018-06-30T19:31:27.810Z,93.33
2018-06-30T19:34:01.099Z,92.87
2018-06-30T19:36:33.531Z,103.27
2018-06-30T19:39:05.402Z,104.93
2018-06-30T19:41:37.415Z,106.23
2018-06-30T19:44:09.374Z,91.83
2018-06-30T19:46:40.578Z,84.77
2018-06-30T19:49:12.569Z,94.93
2018-06-30T19:51:45.090Z,94.77
2018-06-30T19:54:16.703Z,84.93
2018-06-30T19:56:48.655Z,87.97
2018-06-30T19:59:19.377Z,97.13
2018-06-30T20:01:51.483Z,106.47
2018-06-30T20:04:23.271Z,107.37
2018-06-30T20:06:56.028Z,94.07
2018-06-30T20:09:27.938Z,100.30
2018-06-30T20:12:00.065Z,112.50
2018-06-30T20:14:32.778Z,111.53
2018-06-30T20:17:04.545Z,94.00
2018-06-30T20:19:35.614Z,101.57
2018-06-30T20:22:08.337Z,95.53
2018-06-30T20:24:39.955Z,90.57
2018-06-30T20:27:11.876Z,86.57
2018-06-30T20:29:43.706Z,77.57
2018-06-30T20:32:15.442Z,93.90
2018-06-30T20:34:47.215Z,95.83
2018-06-30T20:37:18.122Z,83.00
2018-06-30T20:39:49.712Z,74.40
2018-06-30T20:42:22.289Z,103.13
2018-06-30T20:44:54.050Z,95.17
2018-06-30T20:47:26.178Z,83.77
2018-06-30T20:49:58.102Z,106.03
2018-06-30T20:52:30.576Z,124.30
2018-06-30T20:55:02.442Z,108.60
2018-06-30T20:57:34.551Z,105.10
2018-06-30T21:00:06.661Z,106.33
2018-06-30T21:02:39.019Z,104.20
2018-06-30T21:05:10.947Z,101.77
2018-06-30T21:07:42.894Z,112.27
2018-06-30T21:10:14.623Z,98.93
2018-06-30T21:12:46.694Z,85.03
2018-06-30T21:15:19.405Z,92.73
2018-06-30T21:17:50.534Z,94.17
2018-06-30T21:20:22.326Z,102.97
2018-06-30T21:22:53.441Z,114.47
2018-06-30T21:25:25.599Z,110.63
2018-06-30T21:27:57.756Z,88.60
2018-06-30T21:30:29.672Z,105.97
2018-06-30T21:33:01.593Z,112.93
2018-06-30T21:35:33.286Z,97.37
2018-06-30T21:38:05.387Z,102.63
2018-06-30T21:40:36.326Z,81.67
2018-06-30T21:43:08.311Z,83.73
2018-06-30T21:45:40.341Z,88.40
2018-06-30T21:48:12.570Z,84.20
2018-06-30T21:50:44.231Z,90.80
2018-06-30T21:53:16.263Z,83.77
2018-06-30T21:55:48.013Z,81.50
2018-06-30T21:58:19.075Z,81.87
2018-06-30T22:00:55.344Z,79.33
2018-06-30T22:03:29.562Z,72.63
2018-06-30T22:06:02.632Z,76.27
2018-06-30T22:08:34.828Z,77.77
2018-06-30T22:11:06.803Z,83.57
2018-06-30T22:13:39.256Z,72.20
2018-06-30T22:16:11.926Z,65.90
2018-06-30T22:18:43.816Z,75.97
2018-06-30T22:21:15.687Z,74.20
2018-06-30T22:23:47.778Z,84.47
2018-06-30T22:26:19.752Z,74.07
2018-06-30T22:28:52.553Z,71.93
2018-06-30T22:31:24.161Z,67.07
2018-06-30T22:33:56.233Z,82.63
2018-06-30T22:36:28.221Z,118.30
2018-06-30T22:39:00.243Z,223.23
2018-06-30T22:41:32.410Z,178.40
2018-06-30T22:44:04.477Z,198.73
2018-06-30T22:46:36.131Z,176.53
2018-06-30T22:49:08.062Z,161.10
2018-06-30T22:51:39.869Z,149.10
2018-06-30T22:54:12.035Z,162.53
2018-06-30T22:56:43.714Z,165.57
2018-06-30T22:59:15.556Z,146.10
2018-06-30T23:01:47.322Z,128.70
2018-06-30T23:04:19.354Z,137.30
2018-06-30T23:06:51.102Z,135.83
2018-06-30T23:09:23.462Z,125.37
2018-06-30T23:11:55.247Z,103.50
2018-06-30T23:14:27.378Z,103.47
2018-06-30T23:16:59.941Z,116.93
2018-06-30T23:19:31.802Z,99.40
2018-06-30T23:22:04.655Z,98.00
2018-06-30T23:24:36.827Z,84.30
2018-06-30T23:27:08.398Z,84.53
2018-06-30T23:29:40.482Z,83.33
2018-06-30T23:32:12.209Z,74.13
2018-06-30T23:34:44.030Z,78.93
2018-06-30T23:37:15.860Z,74.23
2018-06-30T23:39:48.027Z,71.33
2018-06-30T23:42:19.797Z,61.57
2018-06-30T23:44:51.592Z,81.83
2018-06-30T23:47:23.231Z,85.07
2018-06-30T23:49:55.574Z,65.70
2018-06-30T23:52:27.312Z,61.60
2018-06-30T23:54:59.273Z,76.27
2018-06-30T23:57:31.010Z,54.73
